BOX515 ZGGG-VOBL
Flight info
| Callsign | BOX515 |
|---|---|
| Flight time | 5h 14m |
| Altitude | 34100 |
| Route | VIBOS9 VIBOS R473 ZUH R200 BIGRO G221 SAMAS A202 ASSAD/K0915F340 A202 VILAO/N0489F360 A202 SAV B460 KRT W1 BKK M502 LALIT P762 PPB P761 MMV W117 XIVIL XIVIL7F |
| Aircraft | B77L/H-SDE1E2E3FGHIJ2J3J4J5M1RWXY/LB1D1 |
Departure
| Time | 2026-04-27 09:07 |
|---|---|
| Airport | Guangzhou Baiyun International Airport (ZGGG) |
Arrival
| Time | 2026-04-27 14:22 |
|---|---|
| Airport | Kempegowda International Airport Bengaluru (VOBL) |
| Time | Latitude | Longitude | Altitude | Speed | Heading |
|---|---|---|---|---|---|
| 2026-04-27 08:43 | 23.41465 | 113.29759 | 63 ft | 0 kts | 104° |
| 2026-04-27 08:58 | 23.41466 | 113.29752 | 54 ft | 2 kts | 104° |
| 2026-04-27 08:59 | 23.41471 | 113.29731 | 54 ft | 3 kts | 104° |
| 2026-04-27 08:59 | 23.41476 | 113.29710 | 54 ft | 3 kts | 104° |
| 2026-04-27 08:59 | 23.41480 | 113.29693 | 54 ft | 3 kts | 107° |
| 2026-04-27 08:59 | 23.41486 | 113.29676 | 54 ft | 3 kts | 134° |
| 2026-04-27 09:00 | 23.41496 | 113.29667 | 54 ft | 3 kts | 172° |
| 2026-04-27 09:00 | 23.41514 | 113.29667 | 54 ft | 3 kts | 193° |
| 2026-04-27 09:00 | 23.41531 | 113.29672 | 54 ft | 1 kts | 194° |
| 2026-04-27 09:00 | 23.41533 | 113.29672 | 54 ft | 0 kts | 194° |
| 2026-04-27 09:03 | 23.41532 | 113.29672 | 54 ft | 1 kts | 194° |
| 2026-04-27 09:03 | 23.41517 | 113.29668 | 63 ft | 4 kts | 194° |
| 2026-04-27 09:03 | 23.41490 | 113.29660 | 57 ft | 7 kts | 195° |
| 2026-04-27 09:04 | 23.41403 | 113.29636 | 58 ft | 15 kts | 193° |
| 2026-04-27 09:04 | 23.41300 | 113.29609 | 58 ft | 18 kts | 194° |
| 2026-04-27 09:04 | 23.41169 | 113.29574 | 58 ft | 19 kts | 194° |
| 2026-04-27 09:04 | 23.41038 | 113.29539 | 58 ft | 19 kts | 193° |
| 2026-04-27 09:05 | 23.40907 | 113.29504 | 59 ft | 15 kts | 194° |
| 2026-04-27 09:05 | 23.40811 | 113.29476 | 58 ft | 14 kts | 199° |
| 2026-04-27 09:05 | 23.40790 | 113.29396 | 58 ft | 12 kts | 286° |
| 2026-04-27 09:05 | 23.40810 | 113.29305 | 59 ft | 14 kts | 284° |
| 2026-04-27 09:06 | 23.40827 | 113.29223 | 58 ft | 9 kts | 268° |
| 2026-04-27 09:06 | 23.40784 | 113.29187 | 57 ft | 8 kts | 195° |
| 2026-04-27 09:06 | 23.40747 | 113.29177 | 56 ft | 0 kts | 194° |
| 2026-04-27 09:06 | 23.40654 | 113.29150 | 58 ft | 31 kts | 194° |
| 2026-04-27 09:07 | 23.40222 | 113.29035 | 58 ft | 99 kts | 194° |
| 2026-04-27 09:07 | 23.39351 | 113.28800 | 59 ft | 156 kts | 194° |
| 2026-04-27 09:07 | 23.38173 | 113.28470 | 243 ft | 182 kts | 194° |
| 2026-04-27 09:07 | 23.36957 | 113.28105 | 822 ft | 181 kts | 197° |
| 2026-04-27 09:08 | 23.35798 | 113.27577 | 1505 ft | 180 kts | 205° |
| 2026-04-27 09:08 | 23.34714 | 113.26862 | 2081 ft | 187 kts | 213° |
| 2026-04-27 09:08 | 23.33656 | 113.25936 | 2429 ft | 204 kts | 220° |
| 2026-04-27 09:08 | 23.32642 | 113.24746 | 2711 ft | 227 kts | 229° |
| 2026-04-27 09:09 | 23.31677 | 113.23255 | 2925 ft | 251 kts | 227° |
| 2026-04-27 09:09 | 23.30238 | 113.22220 | 3443 ft | 252 kts | 193° |
| 2026-04-27 09:09 | 23.28503 | 113.21833 | 4064 ft | 258 kts | 190° |
| 2026-04-27 09:09 | 23.26727 | 113.21441 | 4841 ft | 261 kts | 191° |
| 2026-04-27 09:10 | 23.24964 | 113.21052 | 5602 ft | 258 kts | 191° |
| 2026-04-27 09:10 | 23.23177 | 113.20659 | 6008 ft | 263 kts | 191° |
| 2026-04-27 09:10 | 23.21390 | 113.20268 | 5999 ft | 267 kts | 191° |
| 2026-04-27 09:10 | 23.19570 | 113.20060 | 6000 ft | 262 kts | 175° |
| 2026-04-27 09:11 | 23.17765 | 113.20378 | 6421 ft | 263 kts | 169° |
| 2026-04-27 09:11 | 23.15975 | 113.20819 | 7164 ft | 265 kts | 168° |
| 2026-04-27 09:11 | 23.14162 | 113.21274 | 7811 ft | 270 kts | 168° |
| 2026-04-27 09:11 | 23.12313 | 113.21726 | 8462 ft | 275 kts | 169° |
| 2026-04-27 09:12 | 23.11063 | 113.22026 | 8895 ft | 278 kts | 169° |
| 2026-04-27 09:12 | 23.08654 | 113.22589 | 9721 ft | 285 kts | 170° |
| 2026-04-27 09:12 | 23.06694 | 113.23038 | 10300 ft | 293 kts | 170° |
| 2026-04-27 09:12 | 23.04620 | 113.23506 | 10502 ft | 317 kts | 170° |
| 2026-04-27 09:13 | 23.02376 | 113.24005 | 10687 ft | 341 kts | 170° |
| 2026-04-27 09:13 | 22.99972 | 113.24538 | 10906 ft | 363 kts | 170° |
| 2026-04-27 09:13 | 22.97455 | 113.25095 | 11450 ft | 374 kts | 170° |
| 2026-04-27 09:13 | 22.94910 | 113.25655 | 12156 ft | 380 kts | 170° |
| 2026-04-27 09:14 | 22.92310 | 113.26228 | 12999 ft | 383 kts | 171° |
| 2026-04-27 09:14 | 22.89682 | 113.26806 | 13810 ft | 388 kts | 171° |
| 2026-04-27 09:14 | 22.87017 | 113.27392 | 14481 ft | 393 kts | 171° |
| 2026-04-27 09:14 | 22.84315 | 113.27986 | 15142 ft | 398 kts | 171° |
| 2026-04-27 09:15 | 22.81589 | 113.28585 | 15813 ft | 403 kts | 171° |
| 2026-04-27 09:15 | 22.78822 | 113.29193 | 16485 ft | 407 kts | 171° |
| 2026-04-27 09:15 | 22.76024 | 113.29808 | 17150 ft | 412 kts | 171° |
| 2026-04-27 09:15 | 22.73202 | 113.30428 | 17800 ft | 416 kts | 171° |
| 2026-04-27 09:16 | 22.70341 | 113.31056 | 18399 ft | 421 kts | 171° |
| 2026-04-27 09:16 | 22.67455 | 113.31690 | 18953 ft | 425 kts | 171° |
| 2026-04-27 09:16 | 22.64576 | 113.32321 | 19506 ft | 429 kts | 171° |
| 2026-04-27 09:16 | 22.61644 | 113.33024 | 20053 ft | 434 kts | 168° |
| 2026-04-27 09:17 | 22.58740 | 113.33994 | 20583 ft | 439 kts | 165° |
| 2026-04-27 09:17 | 22.55808 | 113.35030 | 21103 ft | 444 kts | 165° |
| 2026-04-27 09:17 | 22.52857 | 113.36077 | 21635 ft | 448 kts | 165° |
| 2026-04-27 09:17 | 22.49881 | 113.37124 | 22159 ft | 452 kts | 165° |
| 2026-04-27 09:18 | 22.46878 | 113.38172 | 22681 ft | 456 kts | 165° |
| 2026-04-27 09:18 | 22.43848 | 113.39222 | 23181 ft | 459 kts | 165° |
| 2026-04-27 09:18 | 22.40785 | 113.40282 | 23640 ft | 463 kts | 166° |
| 2026-04-27 09:18 | 22.38757 | 113.40983 | 23912 ft | 465 kts | 166° |
| 2026-04-27 09:19 | 22.34609 | 113.42416 | 24495 ft | 469 kts | 166° |
| 2026-04-27 09:19 | 22.32546 | 113.43129 | 24787 ft | 469 kts | 166° |
| 2026-04-27 09:19 | 22.29375 | 113.43870 | 25074 ft | 465 kts | 180° |
| 2026-04-27 09:19 | 22.26175 | 113.43536 | 25401 ft | 460 kts | 199° |
| 2026-04-27 09:20 | 22.22432 | 113.41536 | 26016 ft | 453 kts | 219° |
| 2026-04-27 09:20 | 22.20817 | 113.40048 | 26336 ft | 451 kts | 226° |
| 2026-04-27 09:20 | 22.18776 | 113.37482 | 26749 ft | 451 kts | 238° |
| 2026-04-27 09:20 | 22.17414 | 113.34485 | 27045 ft | 453 kts | 250° |
| 2026-04-27 09:21 | 22.16338 | 113.31259 | 27392 ft | 456 kts | 250° |
| 2026-04-27 09:21 | 22.15229 | 113.28040 | 27767 ft | 459 kts | 249° |
| 2026-04-27 09:21 | 22.14052 | 113.24824 | 28182 ft | 461 kts | 249° |
| 2026-04-27 09:21 | 22.12808 | 113.21624 | 28567 ft | 464 kts | 247° |
| 2026-04-27 09:22 | 22.11487 | 113.18436 | 28917 ft | 467 kts | 246° |
| 2026-04-27 09:22 | 22.10136 | 113.15235 | 29259 ft | 469 kts | 246° |
| 2026-04-27 09:22 | 22.08800 | 113.12061 | 29589 ft | 472 kts | 246° |
| 2026-04-27 09:22 | 22.07451 | 113.08830 | 29935 ft | 474 kts | 246° |
| 2026-04-27 09:23 | 22.06104 | 113.05576 | 30290 ft | 473 kts | 247° |
| 2026-04-27 09:23 | 22.04765 | 113.02336 | 30741 ft | 471 kts | 247° |
| 2026-04-27 09:23 | 22.03433 | 112.99107 | 31209 ft | 469 kts | 247° |
| 2026-04-27 09:23 | 22.02151 | 112.95880 | 31629 ft | 467 kts | 248° |
| 2026-04-27 09:24 | 22.00904 | 112.92656 | 32090 ft | 465 kts | 248° |
| 2026-04-27 09:24 | 21.99663 | 112.89438 | 32518 ft | 464 kts | 248° |
| 2026-04-27 09:24 | 21.98436 | 112.86276 | 32941 ft | 462 kts | 248° |
| 2026-04-27 09:24 | 21.97189 | 112.83089 | 33339 ft | 461 kts | 248° |
| 2026-04-27 09:25 | 21.95937 | 112.79916 | 33776 ft | 459 kts | 248° |
| 2026-04-27 09:25 | 21.94674 | 112.76761 | 34020 ft | 459 kts | 248° |
| 2026-04-27 09:25 | 21.93399 | 112.73594 | 34002 ft | 460 kts | 248° |
| 2026-04-27 09:26 | 21.90855 | 112.67279 | 34002 ft | 458 kts | 248° |
| 2026-04-27 09:26 | 21.88325 | 112.60982 | 34003 ft | 458 kts | 248° |
| 2026-04-27 09:27 | 21.85809 | 112.54725 | 34000 ft | 458 kts | 248° |
| 2026-04-27 09:27 | 21.83293 | 112.48422 | 33994 ft | 458 kts | 248° |
| 2026-04-27 09:28 | 21.80787 | 112.42112 | 33997 ft | 458 kts | 249° |
| 2026-04-27 09:28 | 21.78280 | 112.35807 | 33994 ft | 458 kts | 248° |
| 2026-04-27 09:29 | 21.75766 | 112.29501 | 33996 ft | 458 kts | 248° |
| 2026-04-27 09:29 | 21.73249 | 112.23199 | 33992 ft | 459 kts | 248° |
| 2026-04-27 09:30 | 21.70740 | 112.16927 | 33992 ft | 459 kts | 248° |
| 2026-04-27 09:30 | 21.68218 | 112.10627 | 33993 ft | 459 kts | 248° |
| 2026-04-27 09:31 | 21.65692 | 112.04325 | 33994 ft | 459 kts | 248° |
| 2026-04-27 09:31 | 21.63158 | 111.98010 | 33995 ft | 459 kts | 249° |
| 2026-04-27 09:32 | 21.60624 | 111.91705 | 33989 ft | 460 kts | 248° |
| 2026-04-27 09:32 | 21.58004 | 111.85431 | 33991 ft | 461 kts | 244° |
| 2026-04-27 09:33 | 21.54556 | 111.79592 | 33991 ft | 464 kts | 236° |
| 2026-04-27 09:33 | 21.50392 | 111.74262 | 33991 ft | 466 kts | 232° |
| 2026-04-27 09:34 | 21.46169 | 111.69019 | 33990 ft | 467 kts | 232° |
| 2026-04-27 09:34 | 21.41930 | 111.63725 | 33989 ft | 467 kts | 232° |
| 2026-04-27 09:35 | 21.37710 | 111.58425 | 33988 ft | 467 kts | 233° |
| 2026-04-27 09:35 | 21.33481 | 111.53110 | 33985 ft | 468 kts | 233° |
| 2026-04-27 09:36 | 21.29249 | 111.47799 | 33983 ft | 468 kts | 233° |
| 2026-04-27 09:36 | 21.25042 | 111.42524 | 33977 ft | 468 kts | 233° |
| 2026-04-27 09:37 | 21.20802 | 111.37214 | 33980 ft | 468 kts | 233° |
| 2026-04-27 09:37 | 21.16555 | 111.31899 | 33979 ft | 469 kts | 233° |
| 2026-04-27 09:38 | 21.12309 | 111.26592 | 33972 ft | 469 kts | 233° |
| 2026-04-27 09:38 | 21.08080 | 111.21310 | 33977 ft | 469 kts | 233° |
| 2026-04-27 09:39 | 21.03822 | 111.15998 | 33973 ft | 469 kts | 233° |
| 2026-04-27 09:39 | 20.99562 | 111.10686 | 33970 ft | 470 kts | 233° |
| 2026-04-27 09:40 | 20.95304 | 111.05382 | 33968 ft | 470 kts | 233° |
| 2026-04-27 09:40 | 20.91052 | 111.00069 | 33965 ft | 470 kts | 233° |
| 2026-04-27 09:41 | 20.86832 | 110.94783 | 33965 ft | 470 kts | 233° |
| 2026-04-27 09:41 | 20.82584 | 110.89467 | 33964 ft | 470 kts | 233° |
| 2026-04-27 09:42 | 20.78334 | 110.84158 | 33960 ft | 470 kts | 233° |
| 2026-04-27 09:42 | 20.74079 | 110.78846 | 33956 ft | 470 kts | 233° |
| 2026-04-27 09:43 | 20.69824 | 110.73540 | 33958 ft | 470 kts | 233° |
| 2026-04-27 09:43 | 20.65562 | 110.68231 | 33957 ft | 470 kts | 233° |
| 2026-04-27 09:44 | 20.61303 | 110.62930 | 33953 ft | 470 kts | 233° |
| 2026-04-27 09:44 | 20.57045 | 110.57634 | 33953 ft | 469 kts | 233° |
| 2026-04-27 09:45 | 20.52792 | 110.52347 | 33956 ft | 469 kts | 233° |
| 2026-04-27 09:45 | 20.48593 | 110.47076 | 33956 ft | 468 kts | 235° |
| 2026-04-27 09:46 | 20.44495 | 110.41669 | 33957 ft | 468 kts | 236° |
| 2026-04-27 09:46 | 20.40413 | 110.36262 | 33952 ft | 468 kts | 235° |
| 2026-04-27 09:47 | 20.36308 | 110.30870 | 33947 ft | 468 kts | 235° |
| 2026-04-27 09:47 | 20.32197 | 110.25487 | 33955 ft | 468 kts | 235° |
| 2026-04-27 09:48 | 20.28126 | 110.20132 | 33953 ft | 468 kts | 236° |
| 2026-04-27 09:48 | 20.24066 | 110.14711 | 33950 ft | 468 kts | 236° |
| 2026-04-27 09:49 | 20.20012 | 110.09288 | 33956 ft | 467 kts | 236° |
| 2026-04-27 09:49 | 20.15946 | 110.03863 | 33946 ft | 467 kts | 236° |
| 2026-04-27 09:50 | 20.11889 | 109.98460 | 33949 ft | 467 kts | 236° |
| 2026-04-27 09:50 | 20.07854 | 109.93095 | 33953 ft | 467 kts | 236° |
| 2026-04-27 09:51 | 20.03796 | 109.87703 | 33954 ft | 467 kts | 236° |
| 2026-04-27 09:51 | 19.99733 | 109.82309 | 33948 ft | 467 kts | 236° |
| 2026-04-27 09:52 | 19.95664 | 109.76912 | 33950 ft | 467 kts | 236° |
| 2026-04-27 09:52 | 19.91628 | 109.71564 | 33947 ft | 467 kts | 236° |
| 2026-04-27 09:53 | 19.87558 | 109.66177 | 33948 ft | 467 kts | 236° |
| 2026-04-27 09:53 | 19.83488 | 109.60792 | 33941 ft | 467 kts | 236° |
| 2026-04-27 09:54 | 19.79416 | 109.55411 | 33954 ft | 467 kts | 236° |
| 2026-04-27 09:54 | 19.75345 | 109.50037 | 33955 ft | 467 kts | 236° |
| 2026-04-27 09:55 | 19.71265 | 109.44654 | 33941 ft | 467 kts | 236° |
| 2026-04-27 09:55 | 19.65174 | 109.36628 | 33953 ft | 467 kts | 236° |
| 2026-04-27 09:56 | 19.61098 | 109.31263 | 33942 ft | 467 kts | 236° |
| 2026-04-27 09:56 | 19.57020 | 109.25900 | 33944 ft | 467 kts | 236° |
| 2026-04-27 09:57 | 19.52934 | 109.20529 | 33944 ft | 467 kts | 236° |
| 2026-04-27 09:57 | 19.48836 | 109.15189 | 33933 ft | 467 kts | 235° |
| 2026-04-27 09:58 | 19.44726 | 109.09890 | 33940 ft | 468 kts | 235° |
| 2026-04-27 09:58 | 19.40590 | 109.04558 | 33943 ft | 468 kts | 235° |
| 2026-04-27 09:59 | 19.36458 | 108.99226 | 33926 ft | 468 kts | 235° |
| 2026-04-27 09:59 | 19.32322 | 108.93892 | 33925 ft | 469 kts | 235° |
| 2026-04-27 10:00 | 19.28181 | 108.88554 | 33921 ft | 469 kts | 235° |
| 2026-04-27 10:00 | 19.24041 | 108.83224 | 33931 ft | 469 kts | 236° |
| 2026-04-27 10:01 | 19.19905 | 108.77886 | 33931 ft | 469 kts | 236° |
| 2026-04-27 10:01 | 19.15795 | 108.72581 | 33924 ft | 469 kts | 236° |
| 2026-04-27 10:02 | 19.11646 | 108.67228 | 34181 ft | 471 kts | 236° |
| 2026-04-27 10:02 | 19.09575 | 108.64560 | 34590 ft | 467 kts | 236° |
| 2026-04-27 10:02 | 19.07519 | 108.61916 | 35037 ft | 463 kts | 235° |
| 2026-04-27 10:03 | 19.05476 | 108.59288 | 35452 ft | 460 kts | 235° |
| 2026-04-27 10:03 | 19.03452 | 108.56684 | 35817 ft | 458 kts | 235° |
| 2026-04-27 10:03 | 19.01424 | 108.54073 | 35918 ft | 461 kts | 235° |
| 2026-04-27 10:03 | 18.99387 | 108.51451 | 35920 ft | 461 kts | 235° |
| 2026-04-27 10:04 | 18.96011 | 108.47112 | 35914 ft | 458 kts | 235° |
| 2026-04-27 10:04 | 18.91977 | 108.41933 | 35922 ft | 455 kts | 236° |
| 2026-04-27 10:05 | 18.87957 | 108.36776 | 35927 ft | 454 kts | 236° |
| 2026-04-27 10:05 | 18.83286 | 108.30786 | 35921 ft | 454 kts | 236° |
| 2026-04-27 10:06 | 18.79944 | 108.26506 | 35922 ft | 454 kts | 236° |
| 2026-04-27 10:06 | 18.75914 | 108.21347 | 35940 ft | 455 kts | 236° |
| 2026-04-27 10:07 | 18.71886 | 108.16196 | 35939 ft | 456 kts | 236° |
| 2026-04-27 10:07 | 18.67838 | 108.11023 | 35920 ft | 456 kts | 236° |
| 2026-04-27 10:08 | 18.63787 | 108.05851 | 35917 ft | 457 kts | 236° |
| 2026-04-27 10:08 | 18.59756 | 108.00710 | 35919 ft | 458 kts | 235° |
| 2026-04-27 10:09 | 18.55698 | 107.95537 | 35930 ft | 458 kts | 235° |
| 2026-04-27 10:09 | 18.51632 | 107.90358 | 35927 ft | 458 kts | 235° |
| 2026-04-27 10:10 | 18.47559 | 107.85175 | 35925 ft | 459 kts | 235° |
| 2026-04-27 10:10 | 18.43485 | 107.79995 | 35925 ft | 459 kts | 235° |
| 2026-04-27 10:11 | 18.39413 | 107.74820 | 35922 ft | 459 kts | 235° |
| 2026-04-27 10:11 | 18.35330 | 107.69634 | 35926 ft | 459 kts | 236° |
| 2026-04-27 10:12 | 18.31712 | 107.64209 | 35922 ft | 454 kts | 242° |
| 2026-04-27 10:12 | 18.28339 | 107.58555 | 35836 ft | 456 kts | 242° |
| 2026-04-27 10:13 | 18.24946 | 107.52901 | 35828 ft | 457 kts | 242° |
| 2026-04-27 10:13 | 18.21539 | 107.47266 | 35811 ft | 457 kts | 242° |
| 2026-04-27 10:14 | 18.18126 | 107.41635 | 35814 ft | 457 kts | 241° |
| 2026-04-27 10:14 | 18.14733 | 107.36040 | 35817 ft | 457 kts | 241° |
| 2026-04-27 10:15 | 18.11313 | 107.30404 | 35818 ft | 457 kts | 241° |
| 2026-04-27 10:15 | 18.07887 | 107.24762 | 35821 ft | 457 kts | 241° |
| 2026-04-27 10:16 | 18.04453 | 107.19128 | 35817 ft | 458 kts | 241° |
| 2026-04-27 10:16 | 18.01023 | 107.13520 | 35821 ft | 458 kts | 241° |
| 2026-04-27 10:17 | 17.97570 | 107.07877 | 35819 ft | 459 kts | 241° |
| 2026-04-27 10:17 | 17.94113 | 107.02229 | 35816 ft | 459 kts | 241° |
| 2026-04-27 10:18 | 17.90657 | 106.96585 | 35812 ft | 460 kts | 241° |
| 2026-04-27 10:18 | 17.87195 | 106.90930 | 35819 ft | 460 kts | 241° |
| 2026-04-27 10:19 | 17.83756 | 106.85265 | 35820 ft | 460 kts | 241° |
| 2026-04-27 10:19 | 17.80320 | 106.79596 | 35814 ft | 460 kts | 241° |
| 2026-04-27 10:20 | 17.76899 | 106.73962 | 35812 ft | 461 kts | 241° |
| 2026-04-27 10:20 | 17.73448 | 106.68287 | 35824 ft | 461 kts | 241° |
| 2026-04-27 10:21 | 17.69991 | 106.62607 | 35824 ft | 462 kts | 241° |
| 2026-04-27 10:21 | 17.66528 | 106.56927 | 35825 ft | 462 kts | 240° |
| 2026-04-27 10:22 | 17.63054 | 106.51251 | 35828 ft | 463 kts | 240° |
| 2026-04-27 10:22 | 17.59573 | 106.45567 | 35831 ft | 463 kts | 240° |
| 2026-04-27 10:23 | 17.56091 | 106.39881 | 35823 ft | 463 kts | 240° |
| 2026-04-27 10:23 | 17.52631 | 106.34237 | 35826 ft | 463 kts | 240° |
| 2026-04-27 10:24 | 17.49147 | 106.28558 | 35851 ft | 463 kts | 240° |
| 2026-04-27 10:24 | 17.45659 | 106.22874 | 35861 ft | 464 kts | 240° |
| 2026-04-27 10:25 | 17.42160 | 106.17180 | 35875 ft | 465 kts | 240° |
| 2026-04-27 10:25 | 17.38663 | 106.11492 | 35880 ft | 465 kts | 240° |
| 2026-04-27 10:26 | 17.35168 | 106.05799 | 35880 ft | 465 kts | 241° |
| 2026-04-27 10:26 | 17.31705 | 106.00084 | 35881 ft | 465 kts | 241° |
| 2026-04-27 10:27 | 17.28267 | 105.94399 | 35881 ft | 465 kts | 241° |
| 2026-04-27 10:27 | 17.24801 | 105.88682 | 35876 ft | 464 kts | 241° |
| 2026-04-27 10:28 | 17.21336 | 105.82975 | 35882 ft | 464 kts | 241° |
| 2026-04-27 10:28 | 17.17876 | 105.77284 | 35878 ft | 463 kts | 241° |
| 2026-04-27 10:29 | 17.14418 | 105.71599 | 35878 ft | 463 kts | 241° |
| 2026-04-27 10:29 | 17.10974 | 105.65942 | 35876 ft | 463 kts | 241° |
| 2026-04-27 10:30 | 17.07517 | 105.60268 | 35879 ft | 463 kts | 241° |
| 2026-04-27 10:30 | 17.04051 | 105.54585 | 35877 ft | 463 kts | 241° |
| 2026-04-27 10:31 | 17.00607 | 105.48943 | 35887 ft | 462 kts | 241° |
| 2026-04-27 10:31 | 16.97148 | 105.43279 | 35877 ft | 463 kts | 241° |
| 2026-04-27 10:32 | 16.93682 | 105.37609 | 35877 ft | 463 kts | 240° |
| 2026-04-27 10:32 | 16.90205 | 105.31925 | 35878 ft | 464 kts | 240° |
| 2026-04-27 10:33 | 16.86729 | 105.26245 | 35878 ft | 464 kts | 240° |
| 2026-04-27 10:33 | 16.83242 | 105.20562 | 35878 ft | 465 kts | 240° |
| 2026-04-27 10:34 | 16.79743 | 105.14878 | 35876 ft | 465 kts | 240° |
| 2026-04-27 10:34 | 16.76262 | 105.09223 | 35890 ft | 466 kts | 240° |
| 2026-04-27 10:35 | 16.72735 | 105.03496 | 35892 ft | 466 kts | 240° |
| 2026-04-27 10:35 | 16.69245 | 104.97833 | 35876 ft | 467 kts | 240° |
| 2026-04-27 10:36 | 16.65731 | 104.92134 | 35875 ft | 467 kts | 240° |
| 2026-04-27 10:36 | 16.62212 | 104.86433 | 35892 ft | 467 kts | 240° |
| 2026-04-27 10:37 | 16.58692 | 104.80734 | 35891 ft | 467 kts | 240° |
| 2026-04-27 10:37 | 16.55345 | 104.74927 | 35888 ft | 466 kts | 246° |
| 2026-04-27 10:38 | 16.52655 | 104.68840 | 35894 ft | 465 kts | 248° |
| 2026-04-27 10:38 | 16.49972 | 104.62693 | 35886 ft | 466 kts | 247° |
| 2026-04-27 10:39 | 16.47256 | 104.56540 | 35880 ft | 467 kts | 247° |
| 2026-04-27 10:39 | 16.44523 | 104.50391 | 35867 ft | 467 kts | 247° |
| 2026-04-27 10:40 | 16.41804 | 104.44284 | 35859 ft | 468 kts | 247° |
| 2026-04-27 10:40 | 16.39066 | 104.38135 | 35853 ft | 468 kts | 247° |
| 2026-04-27 10:41 | 16.36322 | 104.31974 | 35849 ft | 469 kts | 247° |
| 2026-04-27 10:41 | 16.33570 | 104.25804 | 35834 ft | 470 kts | 247° |
| 2026-04-27 10:42 | 16.30809 | 104.19635 | 35815 ft | 470 kts | 246° |
| 2026-04-27 10:42 | 16.28036 | 104.13469 | 35823 ft | 470 kts | 246° |
| 2026-04-27 10:43 | 16.25265 | 104.07309 | 35809 ft | 470 kts | 246° |
| 2026-04-27 10:43 | 16.22494 | 104.01149 | 35781 ft | 470 kts | 246° |
| 2026-04-27 10:44 | 16.19724 | 103.94995 | 35781 ft | 469 kts | 247° |
| 2026-04-27 10:44 | 16.16971 | 103.88886 | 35779 ft | 469 kts | 247° |
| 2026-04-27 10:45 | 16.14199 | 103.82737 | 35775 ft | 469 kts | 247° |
| 2026-04-27 10:45 | 16.11226 | 103.76688 | 35761 ft | 470 kts | 240° |
| 2026-04-27 10:46 | 16.07393 | 103.71160 | 35776 ft | 472 kts | 235° |
| 2026-04-27 10:46 | 16.03411 | 103.65784 | 35779 ft | 472 kts | 235° |
| 2026-04-27 10:47 | 15.99426 | 103.60358 | 35779 ft | 472 kts | 235° |
| 2026-04-27 10:47 | 15.95458 | 103.54919 | 35782 ft | 471 kts | 235° |
| 2026-04-27 10:48 | 15.91500 | 103.49491 | 35784 ft | 471 kts | 235° |
| 2026-04-27 10:48 | 15.87535 | 103.44060 | 35781 ft | 471 kts | 235° |
| 2026-04-27 10:49 | 15.84237 | 103.39546 | 35788 ft | 471 kts | 235° |
| 2026-04-27 10:49 | 15.79629 | 103.33246 | 35790 ft | 471 kts | 235° |
| 2026-04-27 10:50 | 15.75663 | 103.27824 | 35786 ft | 471 kts | 235° |
| 2026-04-27 10:50 | 15.71699 | 103.22407 | 35789 ft | 471 kts | 235° |
| 2026-04-27 10:51 | 15.68380 | 103.17875 | 35790 ft | 471 kts | 235° |
| 2026-04-27 10:51 | 15.64440 | 103.12496 | 35789 ft | 471 kts | 235° |
| 2026-04-27 10:52 | 15.60466 | 103.07076 | 35790 ft | 471 kts | 235° |
| 2026-04-27 10:52 | 15.56495 | 103.01663 | 35787 ft | 471 kts | 235° |
| 2026-04-27 10:53 | 15.50556 | 102.93577 | 35790 ft | 471 kts | 235° |
| 2026-04-27 10:54 | 15.46579 | 102.88165 | 35785 ft | 472 kts | 235° |
| 2026-04-27 10:54 | 15.42601 | 102.82757 | 35787 ft | 472 kts | 235° |
| 2026-04-27 10:55 | 15.38623 | 102.77352 | 35788 ft | 472 kts | 234° |
| 2026-04-27 10:55 | 15.34642 | 102.71948 | 35785 ft | 472 kts | 234° |
| 2026-04-27 10:56 | 15.30652 | 102.66533 | 35787 ft | 472 kts | 234° |
| 2026-04-27 10:56 | 15.26664 | 102.61126 | 35785 ft | 472 kts | 234° |
| 2026-04-27 10:57 | 15.22673 | 102.55719 | 35787 ft | 473 kts | 234° |
| 2026-04-27 10:57 | 15.18676 | 102.50306 | 35785 ft | 473 kts | 234° |
| 2026-04-27 10:58 | 15.14695 | 102.44920 | 35780 ft | 473 kts | 234° |
| 2026-04-27 10:58 | 15.10679 | 102.39512 | 35776 ft | 474 kts | 234° |
| 2026-04-27 10:59 | 15.06653 | 102.34097 | 35777 ft | 474 kts | 234° |
| 2026-04-27 10:59 | 15.02630 | 102.28687 | 35778 ft | 474 kts | 234° |
| 2026-04-27 11:00 | 14.96592 | 102.20570 | 35777 ft | 475 kts | 234° |
| 2026-04-27 11:00 | 14.92650 | 102.15094 | 35781 ft | 473 kts | 239° |
| 2026-04-27 11:01 | 14.89557 | 102.09118 | 35783 ft | 471 kts | 248° |
| 2026-04-27 11:01 | 14.86984 | 102.02886 | 35787 ft | 471 kts | 248° |
| 2026-04-27 11:02 | 14.84408 | 101.96649 | 35787 ft | 472 kts | 248° |
| 2026-04-27 11:02 | 14.81819 | 101.90460 | 35794 ft | 472 kts | 248° |
| 2026-04-27 11:03 | 14.79198 | 101.84230 | 35793 ft | 472 kts | 248° |
| 2026-04-27 11:03 | 14.76574 | 101.77999 | 35795 ft | 472 kts | 248° |
| 2026-04-27 11:04 | 14.73950 | 101.71772 | 35795 ft | 472 kts | 248° |
| 2026-04-27 11:04 | 14.71327 | 101.65548 | 35797 ft | 472 kts | 248° |
| 2026-04-27 11:05 | 14.68699 | 101.59320 | 35794 ft | 472 kts | 248° |
| 2026-04-27 11:05 | 14.66071 | 101.53098 | 35802 ft | 472 kts | 248° |
| 2026-04-27 11:06 | 14.63440 | 101.46872 | 35786 ft | 472 kts | 248° |
| 2026-04-27 11:06 | 14.60829 | 101.40697 | 35799 ft | 472 kts | 248° |
| 2026-04-27 11:07 | 14.58202 | 101.34475 | 35795 ft | 472 kts | 249° |
| 2026-04-27 11:07 | 14.55576 | 101.28256 | 35794 ft | 473 kts | 248° |
| 2026-04-27 11:08 | 14.52737 | 101.22124 | 35783 ft | 476 kts | 240° |
| 2026-04-27 11:08 | 14.48759 | 101.16638 | 35784 ft | 480 kts | 230° |
| 2026-04-27 11:09 | 14.43922 | 101.11860 | 35786 ft | 482 kts | 225° |
| 2026-04-27 11:09 | 14.38963 | 101.07182 | 35778 ft | 483 kts | 225° |
| 2026-04-27 11:10 | 14.34032 | 101.02484 | 35772 ft | 483 kts | 225° |
| 2026-04-27 11:10 | 14.29112 | 100.97752 | 35772 ft | 483 kts | 225° |
| 2026-04-27 11:11 | 14.24197 | 100.93016 | 35768 ft | 484 kts | 225° |
| 2026-04-27 11:11 | 14.19275 | 100.88279 | 35767 ft | 484 kts | 225° |
| 2026-04-27 11:12 | 14.15174 | 100.84336 | 35770 ft | 484 kts | 225° |
| 2026-04-27 11:12 | 14.11241 | 100.80556 | 35779 ft | 485 kts | 225° |
| 2026-04-27 11:13 | 14.06301 | 100.75813 | 35788 ft | 485 kts | 225° |
| 2026-04-27 11:13 | 14.01363 | 100.71073 | 35798 ft | 485 kts | 225° |
| 2026-04-27 11:14 | 13.96422 | 100.66332 | 35801 ft | 486 kts | 225° |
| 2026-04-27 11:14 | 13.91655 | 100.61437 | 35797 ft | 481 kts | 236° |
| 2026-04-27 11:15 | 13.88582 | 100.55398 | 35810 ft | 476 kts | 253° |
| 2026-04-27 11:15 | 13.87202 | 100.48783 | 35802 ft | 473 kts | 261° |
| 2026-04-27 11:16 | 13.86031 | 100.42108 | 35797 ft | 475 kts | 261° |
| 2026-04-27 11:16 | 13.84815 | 100.35462 | 35791 ft | 476 kts | 260° |
| 2026-04-27 11:17 | 13.83546 | 100.28764 | 35786 ft | 477 kts | 260° |
| 2026-04-27 11:17 | 13.82264 | 100.22059 | 35780 ft | 478 kts | 260° |
| 2026-04-27 11:18 | 13.80977 | 100.15337 | 35781 ft | 478 kts | 260° |
| 2026-04-27 11:18 | 13.79692 | 100.08620 | 35780 ft | 478 kts | 260° |
| 2026-04-27 11:19 | 13.78407 | 100.01912 | 35785 ft | 478 kts | 260° |
| 2026-04-27 11:19 | 13.77121 | 99.95206 | 35782 ft | 477 kts | 260° |
| 2026-04-27 11:20 | 13.75842 | 99.88549 | 35782 ft | 477 kts | 260° |
| 2026-04-27 11:20 | 13.74555 | 99.81862 | 35782 ft | 476 kts | 260° |
| 2026-04-27 11:21 | 13.73270 | 99.75190 | 35787 ft | 475 kts | 260° |
| 2026-04-27 11:21 | 13.71990 | 99.68518 | 35790 ft | 475 kts | 260° |
| 2026-04-27 11:22 | 13.70710 | 99.61838 | 35791 ft | 475 kts | 260° |
| 2026-04-27 11:22 | 13.69431 | 99.55179 | 35796 ft | 475 kts | 260° |
| 2026-04-27 11:23 | 13.68149 | 99.48513 | 35800 ft | 475 kts | 260° |
| 2026-04-27 11:23 | 13.66865 | 99.41852 | 35805 ft | 475 kts | 260° |
| 2026-04-27 11:24 | 13.65581 | 99.35194 | 35817 ft | 475 kts | 260° |
| 2026-04-27 11:24 | 13.64302 | 99.28578 | 35827 ft | 475 kts | 260° |
| 2026-04-27 11:25 | 13.63012 | 99.21912 | 35831 ft | 475 kts | 260° |
| 2026-04-27 11:25 | 13.61720 | 99.15247 | 35834 ft | 475 kts | 260° |
| 2026-04-27 11:26 | 13.60422 | 99.08587 | 35833 ft | 475 kts | 259° |
| 2026-04-27 11:26 | 13.59120 | 99.01920 | 35837 ft | 476 kts | 259° |
| 2026-04-27 11:27 | 13.57814 | 98.95242 | 35834 ft | 476 kts | 259° |
| 2026-04-27 11:27 | 13.56510 | 98.88575 | 35848 ft | 476 kts | 259° |
| 2026-04-27 11:28 | 13.55205 | 98.81912 | 35842 ft | 476 kts | 259° |
| 2026-04-27 11:28 | 13.53905 | 98.75288 | 35848 ft | 476 kts | 259° |
| 2026-04-27 11:29 | 13.52595 | 98.68624 | 35840 ft | 476 kts | 259° |
| 2026-04-27 11:29 | 13.51280 | 98.61942 | 35838 ft | 477 kts | 259° |
| 2026-04-27 11:30 | 13.49964 | 98.55262 | 35834 ft | 477 kts | 259° |
| 2026-04-27 11:30 | 13.48642 | 98.48571 | 35822 ft | 478 kts | 259° |
| 2026-04-27 11:31 | 13.47314 | 98.41882 | 35823 ft | 477 kts | 259° |
| 2026-04-27 11:31 | 13.45984 | 98.35193 | 35816 ft | 477 kts | 259° |
| 2026-04-27 11:32 | 13.44665 | 98.28557 | 35813 ft | 477 kts | 259° |
| 2026-04-27 11:32 | 13.43333 | 98.21869 | 35813 ft | 477 kts | 259° |
| 2026-04-27 11:33 | 13.42003 | 98.15187 | 35811 ft | 478 kts | 259° |
| 2026-04-27 11:33 | 13.40672 | 98.08504 | 35811 ft | 478 kts | 259° |
| 2026-04-27 11:34 | 13.39338 | 98.01807 | 35813 ft | 478 kts | 259° |
| 2026-04-27 11:34 | 13.38003 | 97.95115 | 35814 ft | 478 kts | 259° |
| 2026-04-27 11:35 | 13.36675 | 97.88471 | 35811 ft | 478 kts | 259° |
| 2026-04-27 11:35 | 13.35336 | 97.81783 | 35811 ft | 478 kts | 259° |
| 2026-04-27 11:36 | 13.33995 | 97.75089 | 35813 ft | 478 kts | 259° |
| 2026-04-27 11:36 | 13.32651 | 97.68393 | 35814 ft | 479 kts | 259° |
| 2026-04-27 11:37 | 13.31304 | 97.61693 | 35814 ft | 479 kts | 259° |
| 2026-04-27 11:37 | 13.30185 | 97.56131 | 35822 ft | 479 kts | 259° |
| 2026-04-27 11:38 | 13.28836 | 97.49435 | 35815 ft | 479 kts | 259° |
| 2026-04-27 11:38 | 13.27258 | 97.41618 | 35816 ft | 478 kts | 259° |
| 2026-04-27 11:39 | 13.26134 | 97.36059 | 35817 ft | 478 kts | 259° |
| 2026-04-27 11:39 | 13.24783 | 97.29382 | 35817 ft | 478 kts | 259° |
| 2026-04-27 11:40 | 13.23430 | 97.22704 | 35819 ft | 478 kts | 259° |
| 2026-04-27 11:40 | 13.22083 | 97.16068 | 35820 ft | 477 kts | 259° |
| 2026-04-27 11:41 | 13.20729 | 97.09403 | 35820 ft | 477 kts | 259° |
| 2026-04-27 11:41 | 13.19369 | 97.02719 | 35820 ft | 477 kts | 259° |
| 2026-04-27 11:42 | 13.18011 | 96.96059 | 35820 ft | 477 kts | 259° |
| 2026-04-27 11:42 | 13.16652 | 96.89394 | 35818 ft | 477 kts | 259° |
| 2026-04-27 11:43 | 13.15299 | 96.82774 | 35823 ft | 477 kts | 259° |
| 2026-04-27 11:43 | 13.13936 | 96.76114 | 35822 ft | 477 kts | 259° |
| 2026-04-27 11:44 | 13.12572 | 96.69456 | 35821 ft | 477 kts | 259° |
| 2026-04-27 11:44 | 13.11206 | 96.62799 | 35823 ft | 477 kts | 259° |
| 2026-04-27 11:45 | 13.09839 | 96.56143 | 35822 ft | 476 kts | 259° |
| 2026-04-27 11:45 | 13.08471 | 96.49497 | 35820 ft | 476 kts | 259° |
| 2026-04-27 11:46 | 13.07100 | 96.42842 | 35822 ft | 476 kts | 259° |
| 2026-04-27 11:46 | 13.05737 | 96.36232 | 35824 ft | 476 kts | 259° |
| 2026-04-27 11:47 | 13.04365 | 96.29591 | 35825 ft | 476 kts | 259° |
| 2026-04-27 11:47 | 13.02991 | 96.22946 | 35826 ft | 476 kts | 259° |
| 2026-04-27 11:48 | 13.01616 | 96.16307 | 35824 ft | 476 kts | 259° |
| 2026-04-27 11:48 | 13.00239 | 96.09670 | 35825 ft | 476 kts | 259° |
| 2026-04-27 11:49 | 12.98861 | 96.03034 | 35824 ft | 476 kts | 259° |
| 2026-04-27 11:49 | 12.97482 | 95.96402 | 35825 ft | 476 kts | 259° |
| 2026-04-27 11:50 | 12.96101 | 95.89772 | 35825 ft | 475 kts | 259° |
| 2026-04-27 11:50 | 12.94718 | 95.83139 | 35827 ft | 475 kts | 259° |
| 2026-04-27 11:51 | 12.93335 | 95.76510 | 35829 ft | 475 kts | 259° |
| 2026-04-27 11:52 | 12.91262 | 95.66600 | 35828 ft | 475 kts | 259° |
| 2026-04-27 11:52 | 12.89876 | 95.59979 | 35827 ft | 475 kts | 259° |
| 2026-04-27 11:53 | 12.88487 | 95.53353 | 35829 ft | 475 kts | 259° |
| 2026-04-27 11:53 | 12.86827 | 95.46792 | 35834 ft | 477 kts | 252° |
| 2026-04-27 11:54 | 12.84186 | 95.40538 | 35833 ft | 478 kts | 247° |
| 2026-04-27 11:54 | 12.81363 | 95.34366 | 35826 ft | 479 kts | 247° |
| 2026-04-27 11:55 | 12.78557 | 95.28179 | 35827 ft | 479 kts | 247° |
| 2026-04-27 11:55 | 12.75786 | 95.22014 | 35829 ft | 479 kts | 247° |
| 2026-04-27 11:56 | 12.72999 | 95.15797 | 35831 ft | 480 kts | 247° |
| 2026-04-27 11:56 | 12.70211 | 95.09584 | 35828 ft | 480 kts | 247° |
| 2026-04-27 11:57 | 12.67422 | 95.03375 | 35831 ft | 480 kts | 247° |
| 2026-04-27 11:57 | 12.64627 | 94.97161 | 35826 ft | 480 kts | 247° |
| 2026-04-27 11:58 | 12.61827 | 94.90939 | 35827 ft | 481 kts | 247° |
| 2026-04-27 11:58 | 12.59042 | 94.84754 | 35826 ft | 481 kts | 247° |
| 2026-04-27 11:59 | 12.56238 | 94.78534 | 35827 ft | 481 kts | 247° |
| 2026-04-27 11:59 | 12.53432 | 94.72311 | 35829 ft | 481 kts | 247° |
| 2026-04-27 12:00 | 12.50623 | 94.66087 | 35827 ft | 482 kts | 247° |
| 2026-04-27 12:00 | 12.47810 | 94.59859 | 35830 ft | 482 kts | 247° |
| 2026-04-27 12:01 | 12.44998 | 94.53635 | 35834 ft | 482 kts | 247° |
| 2026-04-27 12:01 | 12.42182 | 94.47408 | 35835 ft | 482 kts | 247° |
| 2026-04-27 12:02 | 12.39361 | 94.41174 | 35831 ft | 483 kts | 247° |
| 2026-04-27 12:02 | 12.36551 | 94.34941 | 35829 ft | 483 kts | 247° |
| 2026-04-27 12:03 | 12.33746 | 94.28704 | 35828 ft | 483 kts | 247° |
| 2026-04-27 12:03 | 12.30933 | 94.22460 | 35829 ft | 483 kts | 247° |
| 2026-04-27 12:04 | 12.28119 | 94.16217 | 35829 ft | 483 kts | 247° |
| 2026-04-27 12:04 | 12.25303 | 94.09976 | 35831 ft | 484 kts | 247° |
| 2026-04-27 12:05 | 12.22501 | 94.03770 | 35830 ft | 484 kts | 247° |
| 2026-04-27 12:05 | 12.19703 | 93.97513 | 35831 ft | 484 kts | 248° |
| 2026-04-27 12:06 | 12.16931 | 93.91244 | 35831 ft | 484 kts | 248° |
| 2026-04-27 12:06 | 12.14152 | 93.84967 | 35830 ft | 484 kts | 248° |
| 2026-04-27 12:07 | 12.11369 | 93.78695 | 35829 ft | 485 kts | 247° |
| 2026-04-27 12:07 | 12.08581 | 93.72423 | 35834 ft | 485 kts | 247° |
| 2026-04-27 12:08 | 12.05788 | 93.66144 | 35833 ft | 485 kts | 247° |
| 2026-04-27 12:08 | 12.03014 | 93.59911 | 35835 ft | 485 kts | 247° |
| 2026-04-27 12:09 | 12.00218 | 93.53634 | 35832 ft | 485 kts | 247° |
| 2026-04-27 12:09 | 11.97420 | 93.47355 | 35832 ft | 485 kts | 247° |
| 2026-04-27 12:10 | 11.94620 | 93.41078 | 35833 ft | 485 kts | 247° |
| 2026-04-27 12:10 | 11.91820 | 93.34803 | 35834 ft | 486 kts | 247° |
| 2026-04-27 12:11 | 11.89033 | 93.28562 | 35831 ft | 486 kts | 247° |
| 2026-04-27 12:11 | 11.86227 | 93.22284 | 35831 ft | 486 kts | 247° |
| 2026-04-27 12:12 | 11.83421 | 93.16011 | 35831 ft | 486 kts | 247° |
| 2026-04-27 12:12 | 11.80614 | 93.09738 | 35829 ft | 486 kts | 247° |
| 2026-04-27 12:13 | 11.77800 | 93.03455 | 35831 ft | 486 kts | 247° |
| 2026-04-27 12:13 | 11.74989 | 92.97183 | 35831 ft | 486 kts | 247° |
| 2026-04-27 12:14 | 11.72174 | 92.90904 | 35829 ft | 486 kts | 247° |
| 2026-04-27 12:14 | 11.69358 | 92.84628 | 35830 ft | 487 kts | 247° |
| 2026-04-27 12:15 | 11.66616 | 92.78321 | 35827 ft | 484 kts | 253° |
| 2026-04-27 12:15 | 11.65501 | 92.71642 | 35834 ft | 481 kts | 270° |
| 2026-04-27 12:16 | 11.66189 | 92.64888 | 35832 ft | 479 kts | 280° |
| 2026-04-27 12:16 | 11.67271 | 92.58178 | 35831 ft | 480 kts | 280° |
| 2026-04-27 12:17 | 11.68326 | 92.51445 | 35831 ft | 481 kts | 279° |
| 2026-04-27 12:17 | 11.69336 | 92.44689 | 35831 ft | 482 kts | 279° |
| 2026-04-27 12:18 | 11.70331 | 92.37906 | 35831 ft | 483 kts | 279° |
| 2026-04-27 12:18 | 11.71321 | 92.31133 | 35830 ft | 483 kts | 279° |
| 2026-04-27 12:19 | 11.72311 | 92.24359 | 35830 ft | 483 kts | 279° |
| 2026-04-27 12:19 | 11.73301 | 92.17587 | 35831 ft | 482 kts | 279° |
| 2026-04-27 12:20 | 11.74283 | 92.10867 | 35830 ft | 482 kts | 279° |
| 2026-04-27 12:20 | 11.75267 | 92.04112 | 35829 ft | 481 kts | 279° |
| 2026-04-27 12:21 | 11.76249 | 91.97359 | 35831 ft | 481 kts | 279° |
| 2026-04-27 12:21 | 11.77229 | 91.90614 | 35831 ft | 480 kts | 279° |
| 2026-04-27 12:22 | 11.78206 | 91.83874 | 35828 ft | 480 kts | 279° |
| 2026-04-27 12:22 | 11.79183 | 91.77128 | 35829 ft | 480 kts | 279° |
| 2026-04-27 12:23 | 11.80157 | 91.70385 | 35829 ft | 480 kts | 279° |
| 2026-04-27 12:23 | 11.81124 | 91.63682 | 35829 ft | 480 kts | 279° |
| 2026-04-27 12:24 | 11.82094 | 91.56944 | 35830 ft | 480 kts | 279° |
| 2026-04-27 12:24 | 11.83063 | 91.50206 | 35831 ft | 480 kts | 279° |
| 2026-04-27 12:25 | 11.84030 | 91.43466 | 35832 ft | 480 kts | 279° |
| 2026-04-27 12:25 | 11.84833 | 91.37864 | 35834 ft | 480 kts | 279° |
| 2026-04-27 12:26 | 11.85798 | 91.31119 | 35833 ft | 480 kts | 279° |
| 2026-04-27 12:26 | 11.86633 | 91.24350 | 35830 ft | 480 kts | 276° |
| 2026-04-27 12:27 | 11.87249 | 91.17559 | 35832 ft | 480 kts | 276° |
| 2026-04-27 12:27 | 11.87855 | 91.10769 | 35829 ft | 480 kts | 276° |
| 2026-04-27 12:28 | 11.88492 | 91.03983 | 35830 ft | 480 kts | 276° |
| 2026-04-27 12:28 | 11.89147 | 90.97191 | 35831 ft | 480 kts | 276° |
| 2026-04-27 12:29 | 11.89802 | 90.90408 | 35829 ft | 480 kts | 276° |
| 2026-04-27 12:29 | 11.90451 | 90.83663 | 35832 ft | 480 kts | 276° |
| 2026-04-27 12:30 | 11.91100 | 90.76881 | 35829 ft | 480 kts | 276° |
| 2026-04-27 12:30 | 11.91746 | 90.70108 | 35833 ft | 480 kts | 276° |
| 2026-04-27 12:31 | 11.92392 | 90.63326 | 35835 ft | 480 kts | 276° |
| 2026-04-27 12:31 | 11.93036 | 90.56547 | 35830 ft | 480 kts | 276° |
| 2026-04-27 12:32 | 11.93678 | 90.49765 | 35834 ft | 480 kts | 276° |
| 2026-04-27 12:32 | 11.94319 | 90.42986 | 35834 ft | 480 kts | 276° |
| 2026-04-27 12:33 | 11.94958 | 90.36203 | 35833 ft | 480 kts | 276° |
| 2026-04-27 12:33 | 11.95596 | 90.29417 | 35834 ft | 480 kts | 276° |
| 2026-04-27 12:34 | 11.96232 | 90.22634 | 35836 ft | 480 kts | 276° |
| 2026-04-27 12:34 | 11.96863 | 90.15890 | 35834 ft | 480 kts | 276° |
| 2026-04-27 12:35 | 11.97496 | 90.09099 | 35836 ft | 480 kts | 276° |
| 2026-04-27 12:35 | 11.98128 | 90.02312 | 35834 ft | 480 kts | 276° |
| 2026-04-27 12:36 | 11.98758 | 89.95515 | 35837 ft | 480 kts | 276° |
| 2026-04-27 12:36 | 11.99387 | 89.88723 | 35835 ft | 480 kts | 276° |
| 2026-04-27 12:37 | 12.00015 | 89.81916 | 35834 ft | 480 kts | 275° |
| 2026-04-27 12:37 | 12.00641 | 89.75121 | 35831 ft | 480 kts | 275° |
| 2026-04-27 12:38 | 12.01265 | 89.68318 | 35833 ft | 480 kts | 275° |
| 2026-04-27 12:38 | 12.01883 | 89.61572 | 35833 ft | 480 kts | 275° |
| 2026-04-27 12:39 | 12.02503 | 89.54776 | 35834 ft | 480 kts | 275° |
| 2026-04-27 12:39 | 12.03121 | 89.47988 | 35834 ft | 480 kts | 275° |
| 2026-04-27 12:40 | 12.03738 | 89.41196 | 35837 ft | 480 kts | 275° |
| 2026-04-27 12:40 | 12.04353 | 89.34405 | 35836 ft | 480 kts | 275° |
| 2026-04-27 12:41 | 12.04967 | 89.27617 | 35836 ft | 480 kts | 275° |
| 2026-04-27 12:41 | 12.05578 | 89.20830 | 35835 ft | 480 kts | 275° |
| 2026-04-27 12:42 | 12.06184 | 89.14081 | 35837 ft | 480 kts | 275° |
| 2026-04-27 12:42 | 12.06793 | 89.07284 | 35834 ft | 480 kts | 275° |
| 2026-04-27 12:43 | 12.07400 | 89.00489 | 35838 ft | 480 kts | 275° |
| 2026-04-27 12:43 | 12.08006 | 88.93691 | 35836 ft | 480 kts | 275° |
| 2026-04-27 12:44 | 12.08609 | 88.86901 | 35837 ft | 480 kts | 275° |
| 2026-04-27 12:44 | 12.09211 | 88.80107 | 35837 ft | 480 kts | 275° |
| 2026-04-27 12:45 | 12.09811 | 88.73314 | 35837 ft | 480 kts | 275° |
| 2026-04-27 12:45 | 12.10433 | 88.66516 | 35837 ft | 480 kts | 276° |
| 2026-04-27 12:46 | 12.11216 | 88.59798 | 35839 ft | 479 kts | 277° |
| 2026-04-27 12:46 | 12.12050 | 88.53037 | 35836 ft | 479 kts | 277° |
| 2026-04-27 12:47 | 12.12866 | 88.46275 | 35836 ft | 479 kts | 276° |
| 2026-04-27 12:47 | 12.13663 | 88.39518 | 35836 ft | 479 kts | 276° |
| 2026-04-27 12:48 | 12.14452 | 88.32775 | 35838 ft | 478 kts | 276° |
| 2026-04-27 12:48 | 12.15239 | 88.26024 | 35835 ft | 478 kts | 276° |
| 2026-04-27 12:49 | 12.16025 | 88.19276 | 35835 ft | 478 kts | 276° |
| 2026-04-27 12:49 | 12.16805 | 88.12572 | 35835 ft | 478 kts | 276° |
| 2026-04-27 12:50 | 12.17589 | 88.05816 | 35835 ft | 478 kts | 276° |
| 2026-04-27 12:50 | 12.18371 | 87.99067 | 35838 ft | 478 kts | 276° |
| 2026-04-27 12:51 | 12.19152 | 87.92307 | 35837 ft | 479 kts | 276° |
| 2026-04-27 12:51 | 12.19931 | 87.85549 | 35835 ft | 479 kts | 276° |
| 2026-04-27 12:52 | 12.20709 | 87.78786 | 35833 ft | 479 kts | 276° |
| 2026-04-27 12:52 | 12.21486 | 87.72019 | 35833 ft | 479 kts | 276° |
| 2026-04-27 12:53 | 12.22644 | 87.61906 | 35830 ft | 479 kts | 276° |
| 2026-04-27 12:53 | 12.23417 | 87.55140 | 35833 ft | 479 kts | 276° |
| 2026-04-27 12:54 | 12.24190 | 87.48359 | 35832 ft | 479 kts | 276° |
| 2026-04-27 12:54 | 12.24960 | 87.41584 | 35835 ft | 480 kts | 276° |
| 2026-04-27 12:55 | 12.25728 | 87.34809 | 35831 ft | 480 kts | 276° |
| 2026-04-27 12:55 | 12.26496 | 87.28023 | 35830 ft | 480 kts | 276° |
| 2026-04-27 12:56 | 12.27257 | 87.21285 | 35829 ft | 480 kts | 276° |
| 2026-04-27 12:56 | 12.28023 | 87.14495 | 35825 ft | 480 kts | 276° |
| 2026-04-27 12:57 | 12.28786 | 87.07707 | 35828 ft | 480 kts | 276° |
| 2026-04-27 12:57 | 12.29546 | 87.00930 | 35829 ft | 480 kts | 276° |
| 2026-04-27 12:58 | 12.30304 | 86.94155 | 35828 ft | 480 kts | 276° |
| 2026-04-27 12:58 | 12.31057 | 86.87413 | 35829 ft | 480 kts | 276° |
| 2026-04-27 12:59 | 12.31813 | 86.80624 | 35830 ft | 480 kts | 276° |
| 2026-04-27 12:59 | 12.32569 | 86.73828 | 35826 ft | 480 kts | 276° |
| 2026-04-27 13:00 | 12.33322 | 86.67040 | 35825 ft | 480 kts | 276° |
| 2026-04-27 13:00 | 12.34074 | 86.60245 | 35828 ft | 480 kts | 276° |
| 2026-04-27 13:01 | 12.34823 | 86.53460 | 35831 ft | 480 kts | 276° |
| 2026-04-27 13:01 | 12.35570 | 86.46679 | 35826 ft | 480 kts | 276° |
| 2026-04-27 13:02 | 12.36316 | 86.39892 | 35824 ft | 480 kts | 276° |
| 2026-04-27 13:02 | 12.37060 | 86.33104 | 35826 ft | 480 kts | 276° |
| 2026-04-27 13:03 | 12.37802 | 86.26322 | 35826 ft | 480 kts | 276° |
| 2026-04-27 13:03 | 12.38543 | 86.19535 | 35824 ft | 480 kts | 276° |
| 2026-04-27 13:04 | 12.39277 | 86.12787 | 35822 ft | 480 kts | 276° |
| 2026-04-27 13:04 | 12.40014 | 86.06002 | 35823 ft | 480 kts | 276° |
| 2026-04-27 13:05 | 12.40750 | 85.99215 | 35825 ft | 480 kts | 276° |
| 2026-04-27 13:05 | 12.41484 | 85.92422 | 35824 ft | 480 kts | 276° |
| 2026-04-27 13:06 | 12.42218 | 85.85621 | 35823 ft | 480 kts | 276° |
| 2026-04-27 13:06 | 12.42948 | 85.78833 | 35824 ft | 481 kts | 276° |
| 2026-04-27 13:07 | 12.43673 | 85.72082 | 35826 ft | 481 kts | 276° |
| 2026-04-27 13:07 | 12.44402 | 85.65273 | 35823 ft | 481 kts | 276° |
| 2026-04-27 13:08 | 12.45128 | 85.58480 | 35819 ft | 481 kts | 276° |
| 2026-04-27 13:08 | 12.45854 | 85.51670 | 35822 ft | 481 kts | 276° |
| 2026-04-27 13:09 | 12.46579 | 85.44853 | 36155 ft | 482 kts | 276° |
| 2026-04-27 13:09 | 12.46940 | 85.41450 | 36602 ft | 478 kts | 276° |
| 2026-04-27 13:09 | 12.47297 | 85.38084 | 37093 ft | 474 kts | 276° |
| 2026-04-27 13:10 | 12.47650 | 85.34746 | 37572 ft | 470 kts | 276° |
| 2026-04-27 13:10 | 12.48002 | 85.31422 | 37855 ft | 471 kts | 276° |
| 2026-04-27 13:10 | 12.48708 | 85.24736 | 37817 ft | 471 kts | 276° |
| 2026-04-27 13:11 | 12.49289 | 85.19217 | 37811 ft | 468 kts | 276° |
| 2026-04-27 13:11 | 12.50096 | 85.11538 | 37816 ft | 466 kts | 276° |
| 2026-04-27 13:12 | 12.50676 | 85.06010 | 37823 ft | 465 kts | 276° |
| 2026-04-27 13:12 | 12.51360 | 84.99468 | 37822 ft | 466 kts | 276° |
| 2026-04-27 13:13 | 12.52048 | 84.92871 | 37820 ft | 467 kts | 276° |
| 2026-04-27 13:13 | 12.52738 | 84.86251 | 37820 ft | 468 kts | 276° |
| 2026-04-27 13:14 | 12.53426 | 84.79619 | 37819 ft | 469 kts | 276° |
| 2026-04-27 13:14 | 12.54116 | 84.72969 | 37813 ft | 470 kts | 276° |
| 2026-04-27 13:15 | 12.54805 | 84.66302 | 37816 ft | 471 kts | 276° |
| 2026-04-27 13:15 | 12.55494 | 84.59620 | 37815 ft | 472 kts | 275° |
| 2026-04-27 13:16 | 12.56176 | 84.52981 | 37819 ft | 472 kts | 275° |
| 2026-04-27 13:16 | 12.56863 | 84.46289 | 37818 ft | 473 kts | 275° |
| 2026-04-27 13:17 | 12.57549 | 84.39588 | 37817 ft | 473 kts | 275° |
| 2026-04-27 13:17 | 12.58234 | 84.32878 | 37813 ft | 473 kts | 275° |
| 2026-04-27 13:18 | 12.58917 | 84.26175 | 37819 ft | 473 kts | 275° |
| 2026-04-27 13:18 | 12.59598 | 84.19466 | 37814 ft | 473 kts | 275° |
| 2026-04-27 13:19 | 12.60274 | 84.12797 | 37809 ft | 474 kts | 275° |
| 2026-04-27 13:19 | 12.60952 | 84.06093 | 37811 ft | 474 kts | 275° |
| 2026-04-27 13:20 | 12.61630 | 83.99366 | 37812 ft | 474 kts | 275° |
| 2026-04-27 13:20 | 12.62305 | 83.92653 | 37812 ft | 474 kts | 275° |
| 2026-04-27 13:21 | 12.62978 | 83.85939 | 37815 ft | 474 kts | 275° |
| 2026-04-27 13:21 | 12.63646 | 83.79268 | 37811 ft | 474 kts | 275° |
| 2026-04-27 13:22 | 12.64317 | 83.72548 | 37813 ft | 474 kts | 275° |
| 2026-04-27 13:22 | 12.64985 | 83.65832 | 37804 ft | 474 kts | 275° |
| 2026-04-27 13:23 | 12.65653 | 83.59103 | 37811 ft | 474 kts | 275° |
| 2026-04-27 13:23 | 12.66323 | 83.52399 | 37808 ft | 473 kts | 275° |
| 2026-04-27 13:24 | 12.67012 | 83.45689 | 37813 ft | 473 kts | 275° |
| 2026-04-27 13:24 | 12.67699 | 83.39031 | 37812 ft | 473 kts | 275° |
| 2026-04-27 13:25 | 12.68387 | 83.32325 | 37809 ft | 473 kts | 275° |
| 2026-04-27 13:25 | 12.69071 | 83.25623 | 37814 ft | 473 kts | 275° |
| 2026-04-27 13:26 | 12.69752 | 83.18923 | 37809 ft | 473 kts | 275° |
| 2026-04-27 13:26 | 12.70431 | 83.12227 | 37814 ft | 473 kts | 275° |
| 2026-04-27 13:27 | 12.71109 | 83.05529 | 37808 ft | 473 kts | 275° |
| 2026-04-27 13:27 | 12.71785 | 82.98832 | 37809 ft | 473 kts | 275° |
| 2026-04-27 13:28 | 12.72459 | 82.92134 | 37807 ft | 473 kts | 275° |
| 2026-04-27 13:28 | 12.73131 | 82.85437 | 37808 ft | 473 kts | 275° |
| 2026-04-27 13:29 | 12.73799 | 82.78776 | 37805 ft | 472 kts | 274° |
| 2026-04-27 13:29 | 12.74468 | 82.72071 | 37811 ft | 472 kts | 274° |
| 2026-04-27 13:30 | 12.75136 | 82.65369 | 37805 ft | 472 kts | 274° |
| 2026-04-27 13:30 | 12.75798 | 82.58709 | 37807 ft | 472 kts | 274° |
| 2026-04-27 13:31 | 12.76462 | 82.52013 | 37804 ft | 472 kts | 274° |
| 2026-04-27 13:31 | 12.77123 | 82.45330 | 37801 ft | 472 kts | 274° |
| 2026-04-27 13:32 | 12.77784 | 82.38631 | 37808 ft | 471 kts | 274° |
| 2026-04-27 13:32 | 12.78440 | 82.31953 | 37805 ft | 471 kts | 274° |
| 2026-04-27 13:33 | 12.79096 | 82.25271 | 37800 ft | 471 kts | 274° |
| 2026-04-27 13:33 | 12.79749 | 82.18595 | 37803 ft | 470 kts | 274° |
| 2026-04-27 13:34 | 12.80396 | 82.11972 | 37803 ft | 470 kts | 274° |
| 2026-04-27 13:34 | 12.81044 | 82.05308 | 37803 ft | 470 kts | 274° |
| 2026-04-27 13:35 | 12.81690 | 81.98652 | 37802 ft | 469 kts | 274° |
| 2026-04-27 13:35 | 12.82335 | 81.91994 | 37797 ft | 469 kts | 274° |
| 2026-04-27 13:36 | 12.82977 | 81.85349 | 37800 ft | 469 kts | 274° |
| 2026-04-27 13:36 | 12.83616 | 81.78711 | 37795 ft | 468 kts | 274° |
| 2026-04-27 13:37 | 12.84254 | 81.72068 | 37804 ft | 468 kts | 274° |
| 2026-04-27 13:37 | 12.84890 | 81.65429 | 37803 ft | 468 kts | 274° |
| 2026-04-27 13:38 | 12.85524 | 81.58796 | 37801 ft | 468 kts | 274° |
| 2026-04-27 13:38 | 12.86156 | 81.52165 | 37799 ft | 467 kts | 274° |
| 2026-04-27 13:39 | 12.86786 | 81.45532 | 37793 ft | 467 kts | 274° |
| 2026-04-27 13:39 | 12.87412 | 81.38934 | 37795 ft | 467 kts | 274° |
| 2026-04-27 13:40 | 12.88039 | 81.32300 | 37796 ft | 467 kts | 274° |
| 2026-04-27 13:40 | 12.88664 | 81.25664 | 37793 ft | 467 kts | 274° |
| 2026-04-27 13:41 | 12.89288 | 81.19029 | 37793 ft | 468 kts | 274° |
| 2026-04-27 13:41 | 12.89910 | 81.12397 | 37794 ft | 468 kts | 274° |
| 2026-04-27 13:42 | 12.90527 | 81.05799 | 37788 ft | 468 kts | 274° |
| 2026-04-27 13:42 | 12.91147 | 80.99150 | 37794 ft | 468 kts | 274° |
| 2026-04-27 13:43 | 12.91765 | 80.92504 | 37787 ft | 468 kts | 274° |
| 2026-04-27 13:43 | 12.92381 | 80.85862 | 37786 ft | 468 kts | 274° |
| 2026-04-27 13:44 | 12.92995 | 80.79217 | 37788 ft | 468 kts | 274° |
| 2026-04-27 13:44 | 12.93604 | 80.72613 | 37784 ft | 468 kts | 274° |
| 2026-04-27 13:45 | 12.94218 | 80.65933 | 37781 ft | 468 kts | 274° |
| 2026-04-27 13:45 | 12.94823 | 80.59333 | 37778 ft | 468 kts | 274° |
| 2026-04-27 13:46 | 12.95431 | 80.52691 | 37773 ft | 468 kts | 274° |
| 2026-04-27 13:46 | 12.96036 | 80.46051 | 37763 ft | 468 kts | 273° |
| 2026-04-27 13:47 | 12.96641 | 80.39403 | 37761 ft | 468 kts | 273° |
| 2026-04-27 13:47 | 12.97243 | 80.32758 | 37752 ft | 468 kts | 273° |
| 2026-04-27 13:48 | 12.97844 | 80.26115 | 37746 ft | 468 kts | 273° |
| 2026-04-27 13:48 | 12.98443 | 80.19474 | 37747 ft | 468 kts | 273° |
| 2026-04-27 13:49 | 12.99375 | 80.12872 | 37746 ft | 470 kts | 281° |
| 2026-04-27 13:49 | 13.01009 | 80.06383 | 37753 ft | 470 kts | 282° |
| 2026-04-27 13:50 | 13.02669 | 79.99929 | 37753 ft | 470 kts | 282° |
| 2026-04-27 13:50 | 13.04311 | 79.93429 | 37755 ft | 470 kts | 282° |
| 2026-04-27 13:51 | 13.05932 | 79.86929 | 37757 ft | 470 kts | 282° |
| 2026-04-27 13:51 | 13.07547 | 79.80427 | 37762 ft | 470 kts | 282° |
| 2026-04-27 13:52 | 13.09164 | 79.73912 | 37764 ft | 470 kts | 282° |
| 2026-04-27 13:52 | 13.10767 | 79.67447 | 37762 ft | 470 kts | 282° |
| 2026-04-27 13:53 | 13.13187 | 79.57683 | 37763 ft | 470 kts | 282° |
| 2026-04-27 13:54 | 13.14796 | 79.51178 | 37760 ft | 470 kts | 282° |
| 2026-04-27 13:54 | 13.16405 | 79.44670 | 37759 ft | 470 kts | 282° |
| 2026-04-27 13:55 | 13.18008 | 79.38173 | 37761 ft | 469 kts | 282° |
| 2026-04-27 13:55 | 13.19600 | 79.31716 | 37758 ft | 469 kts | 282° |
| 2026-04-27 13:56 | 13.21199 | 79.25224 | 37763 ft | 469 kts | 282° |
| 2026-04-27 13:56 | 13.22797 | 79.18728 | 37764 ft | 469 kts | 282° |
| 2026-04-27 13:57 | 13.24390 | 79.12244 | 37775 ft | 468 kts | 281° |
| 2026-04-27 13:57 | 13.25979 | 79.05767 | 37388 ft | 474 kts | 282° |
| 2026-04-27 13:57 | 13.26788 | 79.02462 | 36664 ft | 476 kts | 282° |
| 2026-04-27 13:58 | 13.27586 | 78.99213 | 35916 ft | 463 kts | 282° |
| 2026-04-27 13:58 | 13.28103 | 78.97107 | 35431 ft | 456 kts | 282° |
| 2026-04-27 13:58 | 13.29115 | 78.92930 | 34349 ft | 446 kts | 281° |
| 2026-04-27 13:58 | 13.29437 | 78.89792 | 33453 ft | 440 kts | 266° |
| 2026-04-27 13:59 | 13.29200 | 78.86667 | 32603 ft | 441 kts | 264° |
| 2026-04-27 13:59 | 13.28916 | 78.83532 | 31707 ft | 452 kts | 264° |
| 2026-04-27 13:59 | 13.28719 | 78.81321 | 31080 ft | 465 kts | 265° |
| 2026-04-27 13:59 | 13.28440 | 78.77990 | 30214 ft | 483 kts | 265° |
| 2026-04-27 14:00 | 13.28170 | 78.74525 | 29418 ft | 485 kts | 266° |
| 2026-04-27 14:00 | 13.27920 | 78.71119 | 28641 ft | 471 kts | 266° |
| 2026-04-27 14:00 | 13.27685 | 78.67815 | 27960 ft | 455 kts | 266° |
| 2026-04-27 14:00 | 13.27459 | 78.64619 | 27316 ft | 442 kts | 266° |
| 2026-04-27 14:01 | 13.27239 | 78.61513 | 26712 ft | 433 kts | 266° |
| 2026-04-27 14:01 | 13.27019 | 78.58438 | 26147 ft | 434 kts | 266° |
| 2026-04-27 14:01 | 13.26792 | 78.55265 | 25574 ft | 459 kts | 266° |
| 2026-04-27 14:01 | 13.26551 | 78.51913 | 24922 ft | 479 kts | 266° |
| 2026-04-27 14:02 | 13.26304 | 78.48497 | 24263 ft | 480 kts | 266° |
| 2026-04-27 14:02 | 13.26203 | 78.45091 | 23584 ft | 469 kts | 274° |
| 2026-04-27 14:02 | 13.26639 | 78.41836 | 22896 ft | 452 kts | 281° |
| 2026-04-27 14:02 | 13.27232 | 78.38717 | 22271 ft | 441 kts | 282° |
| 2026-04-27 14:03 | 13.27814 | 78.35677 | 21689 ft | 439 kts | 281° |
| 2026-04-27 14:03 | 13.28364 | 78.32605 | 21121 ft | 436 kts | 280° |
| 2026-04-27 14:03 | 13.28875 | 78.29542 | 20559 ft | 434 kts | 279° |
| 2026-04-27 14:03 | 13.29362 | 78.26490 | 20007 ft | 432 kts | 279° |
| 2026-04-27 14:04 | 13.29841 | 78.23454 | 19431 ft | 428 kts | 279° |
| 2026-04-27 14:04 | 13.30316 | 78.20444 | 18879 ft | 427 kts | 279° |
| 2026-04-27 14:04 | 13.30619 | 78.17420 | 18317 ft | 424 kts | 273° |
| 2026-04-27 14:04 | 13.30683 | 78.14392 | 17700 ft | 423 kts | 270° |
| 2026-04-27 14:05 | 13.30663 | 78.11383 | 17119 ft | 420 kts | 270° |
| 2026-04-27 14:05 | 13.30637 | 78.08414 | 16805 ft | 409 kts | 270° |
| 2026-04-27 14:05 | 13.30631 | 78.05604 | 16608 ft | 379 kts | 271° |
| 2026-04-27 14:05 | 13.30644 | 78.03005 | 16402 ft | 348 kts | 271° |
| 2026-04-27 14:06 | 13.30667 | 78.00620 | 16191 ft | 321 kts | 272° |
| 2026-04-27 14:06 | 13.30694 | 77.98411 | 15930 ft | 298 kts | 272° |
| 2026-04-27 14:06 | 13.30723 | 77.96309 | 15723 ft | 290 kts | 272° |
| 2026-04-27 14:06 | 13.30751 | 77.94297 | 15539 ft | 281 kts | 272° |
| 2026-04-27 14:07 | 13.30779 | 77.92281 | 15279 ft | 276 kts | 272° |
| 2026-04-27 14:07 | 13.30807 | 77.90333 | 14998 ft | 271 kts | 272° |
| 2026-04-27 14:07 | 13.30834 | 77.88427 | 14659 ft | 270 kts | 272° |
| 2026-04-27 14:07 | 13.30860 | 77.86505 | 14312 ft | 269 kts | 272° |
| 2026-04-27 14:08 | 13.30887 | 77.84594 | 13979 ft | 267 kts | 272° |
| 2026-04-27 14:08 | 13.30912 | 77.82693 | 13642 ft | 265 kts | 272° |
| 2026-04-27 14:08 | 13.30937 | 77.80800 | 13247 ft | 264 kts | 272° |
| 2026-04-27 14:08 | 13.30962 | 77.78917 | 12854 ft | 264 kts | 272° |
| 2026-04-27 14:09 | 13.30984 | 77.77025 | 12667 ft | 267 kts | 272° |
| 2026-04-27 14:09 | 13.31000 | 77.75156 | 12669 ft | 259 kts | 272° |
| 2026-04-27 14:09 | 13.31014 | 77.73321 | 12451 ft | 253 kts | 272° |
| 2026-04-27 14:09 | 13.31028 | 77.71550 | 12231 ft | 243 kts | 272° |
| 2026-04-27 14:10 | 13.31043 | 77.69814 | 11994 ft | 244 kts | 272° |
| 2026-04-27 14:10 | 13.31057 | 77.68065 | 11698 ft | 246 kts | 271° |
| 2026-04-27 14:10 | 13.31072 | 77.66309 | 11366 ft | 245 kts | 271° |
| 2026-04-27 14:10 | 13.31085 | 77.64572 | 11024 ft | 241 kts | 271° |
| 2026-04-27 14:11 | 13.31098 | 77.62871 | 10775 ft | 236 kts | 271° |
| 2026-04-27 14:11 | 13.31111 | 77.61190 | 10660 ft | 236 kts | 271° |
| 2026-04-27 14:11 | 13.31124 | 77.59497 | 10420 ft | 238 kts | 271° |
| 2026-04-27 14:11 | 13.31137 | 77.57804 | 10178 ft | 235 kts | 271° |
| 2026-04-27 14:12 | 13.31149 | 77.56136 | 9887 ft | 231 kts | 271° |
| 2026-04-27 14:12 | 13.31161 | 77.54511 | 9592 ft | 229 kts | 271° |
| 2026-04-27 14:12 | 13.31173 | 77.52882 | 9285 ft | 227 kts | 271° |
| 2026-04-27 14:12 | 13.31185 | 77.51261 | 8988 ft | 227 kts | 270° |
| 2026-04-27 14:13 | 13.31197 | 77.49645 | 8704 ft | 226 kts | 270° |
| 2026-04-27 14:13 | 13.31208 | 77.48034 | 8422 ft | 225 kts | 270° |
| 2026-04-27 14:13 | 13.31220 | 77.46429 | 8125 ft | 225 kts | 270° |
| 2026-04-27 14:13 | 13.31231 | 77.44827 | 7850 ft | 224 kts | 271° |
| 2026-04-27 14:14 | 13.31233 | 77.43227 | 7571 ft | 224 kts | 270° |
| 2026-04-27 14:14 | 13.31118 | 77.41636 | 7207 ft | 224 kts | 251° |
| 2026-04-27 14:14 | 13.30291 | 77.40346 | 6881 ft | 213 kts | 214° |
| 2026-04-27 14:14 | 13.28964 | 77.39818 | 6599 ft | 202 kts | 177° |
| 2026-04-27 14:15 | 13.27690 | 77.40206 | 6414 ft | 190 kts | 139° |
| 2026-04-27 14:15 | 13.26756 | 77.41171 | 6413 ft | 195 kts | 130° |
| 2026-04-27 14:15 | 13.25826 | 77.42223 | 6343 ft | 201 kts | 130° |
| 2026-04-27 14:15 | 13.24904 | 77.43274 | 6274 ft | 193 kts | 130° |
| 2026-04-27 14:16 | 13.24037 | 77.44272 | 6148 ft | 185 kts | 130° |
| 2026-04-27 14:16 | 13.23202 | 77.45238 | 6074 ft | 178 kts | 130° |
| 2026-04-27 14:16 | 13.22389 | 77.46182 | 6017 ft | 176 kts | 130° |
| 2026-04-27 14:16 | 13.21584 | 77.47130 | 6016 ft | 176 kts | 127° |
| 2026-04-27 14:17 | 13.21112 | 77.48269 | 5992 ft | 176 kts | 95° |
| 2026-04-27 14:17 | 13.21003 | 77.49545 | 6024 ft | 184 kts | 96° |
| 2026-04-27 14:17 | 13.20905 | 77.50843 | 6031 ft | 179 kts | 93° |
| 2026-04-27 14:17 | 13.20865 | 77.52103 | 6000 ft | 175 kts | 92° |
| 2026-04-27 14:18 | 13.20846 | 77.53377 | 5760 ft | 179 kts | 91° |
| 2026-04-27 14:18 | 13.20834 | 77.54633 | 5527 ft | 173 kts | 91° |
| 2026-04-27 14:18 | 13.20824 | 77.55845 | 5337 ft | 168 kts | 92° |
| 2026-04-27 14:18 | 13.20815 | 77.57022 | 5117 ft | 160 kts | 92° |
| 2026-04-27 14:19 | 13.20805 | 77.58134 | 4915 ft | 152 kts | 92° |
| 2026-04-27 14:19 | 13.20795 | 77.59217 | 4758 ft | 152 kts | 92° |
| 2026-04-27 14:19 | 13.20787 | 77.60301 | 4547 ft | 152 kts | 92° |
| 2026-04-27 14:19 | 13.20777 | 77.61384 | 4387 ft | 151 kts | 92° |
| 2026-04-27 14:20 | 13.20767 | 77.62465 | 4171 ft | 153 kts | 93° |
| 2026-04-27 14:20 | 13.20759 | 77.63560 | 3973 ft | 153 kts | 91° |
| 2026-04-27 14:20 | 13.20747 | 77.64638 | 3796 ft | 153 kts | 91° |
| 2026-04-27 14:20 | 13.20741 | 77.65734 | 3606 ft | 152 kts | 93° |
| 2026-04-27 14:21 | 13.20733 | 77.66819 | 3400 ft | 153 kts | 91° |
| 2026-04-27 14:21 | 13.20730 | 77.67912 | 3204 ft | 153 kts | 92° |
| 2026-04-27 14:21 | 13.20719 | 77.69003 | 3033 ft | 152 kts | 90° |
| 2026-04-27 14:21 | 13.20711 | 77.69979 | 3015 ft | 117 kts | 90° |
| 2026-04-27 14:22 | 13.20705 | 77.70652 | 3016 ft | 74 kts | 88° |
| 2026-04-27 14:22 | 13.20698 | 77.71132 | 3016 ft | 47 kts | 91° |
| 2026-04-27 14:22 | 13.20696 | 77.71397 | 3015 ft | 46 kts | 91° |
| 2026-04-27 14:22 | 13.20696 | 77.71737 | 3016 ft | 46 kts | 91° |
| 2026-04-27 14:23 | 13.20691 | 77.72043 | 3016 ft | 30 kts | 91° |
| 2026-04-27 14:23 | 13.20668 | 77.72188 | 3016 ft | 16 kts | 141° |
| 2026-04-27 14:23 | 13.20562 | 77.72200 | 3016 ft | 16 kts | 185° |
| 2026-04-27 14:23 | 13.20486 | 77.72127 | 3016 ft | 16 kts | 204° |
| 2026-04-27 14:24 | 13.20436 | 77.72039 | 3016 ft | 16 kts | 269° |
| 2026-04-27 14:24 | 13.20437 | 77.71927 | 3016 ft | 16 kts | 270° |
| 2026-04-27 14:24 | 13.20437 | 77.71814 | 3016 ft | 16 kts | 270° |
| 2026-04-27 14:24 | 13.20438 | 77.71702 | 3016 ft | 16 kts | 271° |
| 2026-04-27 14:25 | 13.20440 | 77.71590 | 3016 ft | 16 kts | 271° |
| 2026-04-27 14:25 | 13.20441 | 77.71478 | 3016 ft | 16 kts | 269° |
| 2026-04-27 14:25 | 13.20441 | 77.71366 | 3015 ft | 15 kts | 270° |
| 2026-04-27 14:25 | 13.20410 | 77.71283 | 3015 ft | 12 kts | 202° |
| 2026-04-27 14:26 | 13.20326 | 77.71276 | 3015 ft | 12 kts | 181° |
| 2026-04-27 14:26 | 13.20262 | 77.71236 | 3015 ft | 12 kts | 255° |
| 2026-04-27 14:26 | 13.20261 | 77.71150 | 3015 ft | 12 kts | 270° |
| 2026-04-27 14:26 | 13.20261 | 77.71063 | 3015 ft | 12 kts | 270° |
| 2026-04-27 14:27 | 13.20262 | 77.70977 | 3015 ft | 12 kts | 270° |
| 2026-04-27 14:27 | 13.20262 | 77.70890 | 3015 ft | 12 kts | 270° |
| 2026-04-27 14:27 | 13.20263 | 77.70804 | 3015 ft | 12 kts | 270° |
| 2026-04-27 14:27 | 13.20264 | 77.70773 | 3015 ft | 12 kts | 270° |
| 2026-04-27 14:28 | 13.20265 | 77.70667 | 3015 ft | 15 kts | 270° |
| 2026-04-27 14:28 | 13.20265 | 77.70570 | 3016 ft | 8 kts | 270° |
| 2026-04-27 14:28 | 13.20251 | 77.70534 | 3018 ft | 5 kts | 206° |
| 2026-04-27 14:28 | 13.20213 | 77.70532 | 3016 ft | 6 kts | 180° |
| 2026-04-27 14:29 | 13.20186 | 77.70532 | 3016 ft | 3 kts | 180° |
| 2026-04-27 14:29 | 13.20182 | 77.70532 | 3016 ft | 0 kts | 180° |